sensor_id;sensor_type;location;lat;lon;timestamp;P1;P2;P0
79117;PMS7003;68523;51.336;-0.846;2023-06-05T00:00:00;19;16;
79117;PMS7003;68523;51.336;-0.846;2023-06-05T00:03:00;16;14;
79117;PMS7003;68523;51.336;-0.846;2023-06-05T00:06:00;13;9;
79117;PMS7003;68523;51.336;-0.846;2023-06-05T00:09:00;13;9;
79117;PMS7003;68523;51.336;-0.846;2023-06-05T00:12:00;12;11;
79117;PMS7003;68523;51.336;-0.846;2023-06-05T00:15:00;12;11;
79117;PMS7003;68523;51.336;-0.846;2023-06-05T00:18:00;10;10;
79117;PMS7003;68523;51.336;-0.846;2023-06-05T00:21:00;11;11;
79117;PMS7003;68523;51.336;-0.846;2023-06-05T00:24:00;11;11;
79117;PMS7003;68523;51.336;-0.846;2023-06-05T00:27:00;17;12;
79117;PMS7003;68523;51.336;-0.846;2023-06-05T00:30:00;17;12;
79117;PMS7003;68523;51.336;-0.846;2023-06-05T00:33:00;11;9;
79117;PMS7003;68523;51.336;-0.846;2023-06-05T00:36:00;10;10;
79117;PMS7003;68523;51.336;-0.846;2023-06-05T00:39:00;10;10;
79117;PMS7003;68523;51.336;-0.846;2023-06-05T00:42:00;10;10;
79117;PMS7003;68523;51.336;-0.846;2023-06-05T00:45:00;10;10;
79117;PMS7003;68523;51.336;-0.846;2023-06-05T00:48:00;9;9;
79117;PMS7003;68523;51.336;-0.846;2023-06-05T00:51:00;8;8;
79117;PMS7003;68523;51.336;-0.846;2023-06-05T00:54:00;8;8;
79117;PMS7003;68523;51.336;-0.846;2023-06-05T00:57:00;9;9;
79117;PMS7003;68523;51.336;-0.846;2023-06-05T01:00:00;9;9;
79117;PMS7003;68523;51.336;-0.846;2023-06-05T01:03:00;12;9;
79117;PMS7003;68523;51.336;-0.846;2023-06-05T01:06:00;12;9;
79117;PMS7003;68523;51.336;-0.846;2023-06-05T01:09:00;9;6;
79117;PMS7003;68523;51.336;-0.846;2023-06-05T01:12:00;8;8;
79117;PMS7003;68523;51.336;-0.846;2023-06-05T01:15:01;8;8;
79117;PMS7003;68523;51.336;-0.846;2023-06-05T01:18:00;10;10;
79117;PMS7003;68523;51.336;-0.846;2023-06-05T01:21:00;10;10;
79117;PMS7003;68523;51.336;-0.846;2023-06-05T01:24:00;8;8;
79117;PMS7003;68523;51.336;-0.846;2023-06-05T01:27:02;9;8;
79117;PMS7003;68523;51.336;-0.846;2023-06-05T01:30:01;9;8;
79117;PMS7003;68523;51.336;-0.846;2023-06-05T01:33:01;9;5;
79117;PMS7003;68523;51.336;-0.846;2023-06-05T01:36:00;9;5;
79117;PMS7003;68523;51.336;-0.846;2023-06-05T01:39:00;9;6;
79117;PMS7003;68523;51.336;-0.846;2023-06-05T01:42:00;10;9;
79117;PMS7003;68523;51.336;-0.846;2023-06-05T01:45:00;10;9;
79117;PMS7003;68523;51.336;-0.846;2023-06-05T01:48:00;13;10;
79117;PMS7003;68523;51.336;-0.846;2023-06-05T01:51:00;13;10;
79117;PMS7003;68523;51.336;-0.846;2023-06-05T01:54:00;11;10;
79117;PMS7003;68523;51.336;-0.846;2023-06-05T01:57:00;13;12;
79117;PMS7003;68523;51.336;-0.846;2023-06-05T02:00:00;13;12;
79117;PMS7003;68523;51.336;-0.846;2023-06-05T02:03:00;9;8;
79117;PMS7003;68523;51.336;-0.846;2023-06-05T02:06:00;9;8;
79117;PMS7003;68523;51.336;-0.846;2023-06-05T02:09:00;16;14;
79117;PMS7003;68523;51.336;-0.846;2023-06-05T02:12:00;12;11;
79117;PMS7003;68523;51.336;-0.846;2023-06-05T02:15:00;12;11;
79117;PMS7003;68523;51.336;-0.846;2023-06-05T02:18:00;15;11;
79117;PMS7003;68523;51.336;-0.846;2023-06-05T02:21:00;15;11;
79117;PMS7003;68523;51.336;-0.846;2023-06-05T02:24:00;14;12;
79117;PMS7003;68523;51.336;-0.846;2023-06-05T02:27:00;14;12;
79117;PMS7003;68523;51.336;-0.846;2023-06-05T02:30:00;14;12;
79117;PMS7003;68523;51.336;-0.846;2023-06-05T02:33:00;19;14;
79117;PMS7003;68523;51.336;-0.846;2023-06-05T02:36:00;19;14;
79117;PMS7003;68523;51.336;-0.846;2023-06-05T02:39:00;17;14;
79117;PMS7003;68523;51.336;-0.846;2023-06-05T02:42:00;17;14;
79117;PMS7003;68523;51.336;-0.846;2023-06-05T02:45:00;17;14;
79117;PMS7003;68523;51.336;-0.846;2023-06-05T02:48:00;16;14;
79117;PMS7003;68523;51.336;-0.846;2023-06-05T02:51:00;16;14;
79117;PMS7003;68523;51.336;-0.846;2023-06-05T02:54:00;11;11;
79117;PMS7003;68523;51.336;-0.846;2023-06-05T02:57:00;16;15;
79117;PMS7003;68523;51.336;-0.846;2023-06-05T03:00:00;16;15;
79117;PMS7003;68523;51.336;-0.846;2023-06-05T03:03:00;15;11;
79117;PMS7003;68523;51.336;-0.846;2023-06-05T03:06:00;15;11;
79117;PMS7003;68523;51.336;-0.846;2023-06-05T03:09:00;14;14;
79117;PMS7003;68523;51.336;-0.846;2023-06-05T03:12:00;15;12;
79117;PMS7003;68523;51.336;-0.846;2023-06-05T03:15:00;15;12;
79117;PMS7003;68523;51.336;-0.846;2023-06-05T03:18:00;17;12;
79117;PMS7003;68523;51.336;-0.846;2023-06-05T03:21:00;17;12;
79117;PMS7003;68523;51.336;-0.846;2023-06-05T03:24:00;14;11;
79117;PMS7003;68523;51.336;-0.846;2023-06-05T03:27:00;18;15;
79117;PMS7003;68523;51.336;-0.846;2023-06-05T03:30:00;18;15;
79117;PMS7003;68523;51.336;-0.846;2023-06-05T03:33:00;12;10;
79117;PMS7003;68523;51.336;-0.846;2023-06-05T03:36:00;12;10;
79117;PMS7003;68523;51.336;-0.846;2023-06-05T03:39:00;15;12;
79117;PMS7003;68523;51.336;-0.846;2023-06-05T03:42:00;16;16;
79117;PMS7003;68523;51.336;-0.846;2023-06-05T03:45:00;16;16;
79117;PMS7003;68523;51.336;-0.846;2023-06-05T03:48:00;20;17;
79117;PMS7003;68523;51.336;-0.846;2023-06-05T03:51:00;20;17;
79117;PMS7003;68523;51.336;-0.846;2023-06-05T03:54:00;17;14;
79117;PMS7003;68523;51.336;-0.846;2023-06-05T03:57:00;16;14;
79117;PMS7003;68523;51.336;-0.846;2023-06-05T04:00:00;16;14;
79117;PMS7003;68523;51.336;-0.846;2023-06-05T04:03:00;17;13;
79117;PMS7003;68523;51.336;-0.846;2023-06-05T04:06:00;17;13;
79117;PMS7003;68523;51.336;-0.846;2023-06-05T04:09:00;16;15;
79117;PMS7003;68523;51.336;-0.846;2023-06-05T04:12:00;15;15;
79117;PMS7003;68523;51.336;-0.846;2023-06-05T04:15:00;15;15;
79117;PMS7003;68523;51.336;-0.846;2023-06-05T04:18:01;11;11;
79117;PMS7003;68523;51.336;-0.846;2023-06-05T04:21:01;11;11;
79117;PMS7003;68523;51.336;-0.846;2023-06-05T04:24:00;12;11;
79117;PMS7003;68523;51.336;-0.846;2023-06-05T04:27:00;18;16;
79117;PMS7003;68523;51.336;-0.846;2023-06-05T04:30:00;18;16;
79117;PMS7003;68523;51.336;-0.846;2023-06-05T04:33:00;21;15;
79117;PMS7003;68523;51.336;-0.846;2023-06-05T04:36:00;21;15;
79117;PMS7003;68523;51.336;-0.846;2023-06-05T04:39:00;16;16;
79117;PMS7003;68523;51.336;-0.846;2023-06-05T04:42:00;19;18;
79117;PMS7003;68523;51.336;-0.846;2023-06-05T04:45:01;19;18;
79117;PMS7003;68523;51.336;-0.846;2023-06-05T04:48:00;15;15;
79117;PMS7003;68523;51.336;-0.846;2023-06-05T04:51:00;15;15;
79117;PMS7003;68523;51.336;-0.846;2023-06-05T04:54:00;14;10;
79117;PMS7003;68523;51.336;-0.846;2023-06-05T04:57:00;20;14;
79117;PMS7003;68523;51.336;-0.846;2023-06-05T05:00:00;20;14;
79117;PMS7003;68523;51.336;-0.846;2023-06-05T05:03:00;12;11;
79117;PMS7003;68523;51.336;-0.846;2023-06-05T05:06:00;12;11;
79117;PMS7003;68523;51.336;-0.846;2023-06-05T05:09:00;11;11;
79117;PMS7003;68523;51.336;-0.846;2023-06-05T05:12:00;15;14;
79117;PMS7003;68523;51.336;-0.846;2023-06-05T05:15:01;15;14;
79117;PMS7003;68523;51.336;-0.846;2023-06-05T05:18:00;16;14;
79117;PMS7003;68523;51.336;-0.846;2023-06-05T05:21:00;16;14;
79117;PMS7003;68523;51.336;-0.846;2023-06-05T05:24:00;16;14;
79117;PMS7003;68523;51.336;-0.846;2023-06-05T05:27:00;16;13;
79117;PMS7003;68523;51.336;-0.846;2023-06-05T05:30:00;16;13;
79117;PMS7003;68523;51.336;-0.846;2023-06-05T05:33:00;17;12;
79117;PMS7003;68523;51.336;-0.846;2023-06-05T05:36:00;17;12;
79117;PMS7003;68523;51.336;-0.846;2023-06-05T05:39:00;14;14;
79117;PMS7003;68523;51.336;-0.846;2023-06-05T05:42:01;16;14;
79117;PMS7003;68523;51.336;-0.846;2023-06-05T05:45:00;16;14;
79117;PMS7003;68523;51.336;-0.846;2023-06-05T05:48:00;17;15;
79117;PMS7003;68523;51.336;-0.846;2023-06-05T05:51:00;17;15;
79117;PMS7003;68523;51.336;-0.846;2023-06-05T05:54:00;12;11;
79117;PMS7003;68523;51.336;-0.846;2023-06-05T05:57:00;15;11;
79117;PMS7003;68523;51.336;-0.846;2023-06-05T06:00:00;15;11;
79117;PMS7003;68523;51.336;-0.846;2023-06-05T06:03:00;14;12;
79117;PMS7003;68523;51.336;-0.846;2023-06-05T06:06:00;14;12;
79117;PMS7003;68523;51.336;-0.846;2023-06-05T06:09:00;15;12;
79117;PMS7003;68523;51.336;-0.846;2023-06-05T06:12:00;12;12;
79117;PMS7003;68523;51.336;-0.846;2023-06-05T06:15:00;12;12;
79117;PMS7003;68523;51.336;-0.846;2023-06-05T06:18:00;11;11;
79117;PMS7003;68523;51.336;-0.846;2023-06-05T06:21:00;11;11;
79117;PMS7003;68523;51.336;-0.846;2023-06-05T06:24:00;12;11;
79117;PMS7003;68523;51.336;-0.846;2023-06-05T06:27:00;16;12;
79117;PMS7003;68523;51.336;-0.846;2023-06-05T06:30:00;16;12;
79117;PMS7003;68523;51.336;-0.846;2023-06-05T06:33:00;12;10;
79117;PMS7003;68523;51.336;-0.846;2023-06-05T06:36:00;12;10;
79117;PMS7003;68523;51.336;-0.846;2023-06-05T06:39:00;12;10;
79117;PMS7003;68523;51.336;-0.846;2023-06-05T06:42:00;17;11;
79117;PMS7003;68523;51.336;-0.846;2023-06-05T06:45:00;17;11;
79117;PMS7003;68523;51.336;-0.846;2023-06-05T06:48:00;13;12;
79117;PMS7003;68523;51.336;-0.846;2023-06-05T06:51:00;13;12;
79117;PMS7003;68523;51.336;-0.846;2023-06-05T06:54:00;12;11;
79117;PMS7003;68523;51.336;-0.846;2023-06-05T06:57:00;11;10;
79117;PMS7003;68523;51.336;-0.846;2023-06-05T07:00:00;11;10;
79117;PMS7003;68523;51.336;-0.846;2023-06-05T07:03:00;10;10;
79117;PMS7003;68523;51.336;-0.846;2023-06-05T07:06:00;10;10;
79117;PMS7003;68523;51.336;-0.846;2023-06-05T07:09:00;17;13;
79117;PMS7003;68523;51.336;-0.846;2023-06-05T07:12:00;11;11;
79117;PMS7003;68523;51.336;-0.846;2023-06-05T07:15:00;11;11;
79117;PMS7003;68523;51.336;-0.846;2023-06-05T07:18:00;14;13;
79117;PMS7003;68523;51.336;-0.846;2023-06-05T07:21:00;14;13;
79117;PMS7003;68523;51.336;-0.846;2023-06-05T07:24:00;26;21;
79117;PMS7003;68523;51.336;-0.846;2023-06-05T07:27:00;12;12;
79117;PMS7003;68523;51.336;-0.846;2023-06-05T07:30:00;12;12;
79117;PMS7003;68523;51.336;-0.846;2023-06-05T07:33:00;13;9;
79117;PMS7003;68523;51.336;-0.846;2023-06-05T07:36:00;13;9;
79117;PMS7003;68523;51.336;-0.846;2023-06-05T07:39:00;12;10;
79117;PMS7003;68523;51.336;-0.846;2023-06-05T07:42:00;15;13;
79117;PMS7003;68523;51.336;-0.846;2023-06-05T07:45:00;15;13;
79117;PMS7003;68523;51.336;-0.846;2023-06-05T07:48:00;15;12;
79117;PMS7003;68523;51.336;-0.846;2023-06-05T07:51:00;15;12;
79117;PMS7003;68523;51.336;-0.846;2023-06-05T07:54:00;13;12;
79117;PMS7003;68523;51.336;-0.846;2023-06-05T07:57:00;11;10;
79117;PMS7003;68523;51.336;-0.846;2023-06-05T08:00:00;11;10;
79117;PMS7003;68523;51.336;-0.846;2023-06-05T08:03:00;13;13;
79117;PMS7003;68523;51.336;-0.846;2023-06-05T08:06:00;13;13;
79117;PMS7003;68523;51.336;-0.846;2023-06-05T08:09:00;10;9;
79117;PMS7003;68523;51.336;-0.846;2023-06-05T08:12:00;10;9;
79117;PMS7003;68523;51.336;-0.846;2023-06-05T08:15:00;13;10;
79117;PMS7003;68523;51.336;-0.846;2023-06-05T08:18:00;9;9;
79117;PMS7003;68523;51.336;-0.846;2023-06-05T08:21:00;9;9;
79117;PMS7003;68523;51.336;-0.846;2023-06-05T08:24:00;14;11;
79117;PMS7003;68523;51.336;-0.846;2023-06-05T08:27:00;14;11;
79117;PMS7003;68523;51.336;-0.846;2023-06-05T08:30:00;15;14;
79117;PMS7003;68523;51.336;-0.846;2023-06-05T08:33:00;10;10;
79117;PMS7003;68523;51.336;-0.846;2023-06-05T08:36:00;10;10;
79117;PMS7003;68523;51.336;-0.846;2023-06-05T08:39:00;13;11;
79117;PMS7003;68523;51.336;-0.846;2023-06-05T08:42:00;13;11;
79117;PMS7003;68523;51.336;-0.846;2023-06-05T08:45:00;16;12;
79117;PMS7003;68523;51.336;-0.846;2023-06-05T08:48:00;11;11;
79117;PMS7003;68523;51.336;-0.846;2023-06-05T08:51:00;11;11;
79117;PMS7003;68523;51.336;-0.846;2023-06-05T08:54:02;10;10;
79117;PMS7003;68523;51.336;-0.846;2023-06-05T08:57:00;10;10;
79117;PMS7003;68523;51.336;-0.846;2023-06-05T09:00:01;15;13;
79117;PMS7003;68523;51.336;-0.846;2023-06-05T09:03:00;8;8;
79117;PMS7003;68523;51.336;-0.846;2023-06-05T09:06:00;8;8;
79117;PMS7003;68523;51.336;-0.846;2023-06-05T09:09:00;12;12;
79117;PMS7003;68523;51.336;-0.846;2023-06-05T09:12:01;12;12;
79117;PMS7003;68523;51.336;-0.846;2023-06-05T09:15:00;16;12;
79117;PMS7003;68523;51.336;-0.846;2023-06-05T09:18:04;14;11;
79117;PMS7003;68523;51.336;-0.846;2023-06-05T09:21:00;14;11;
79117;PMS7003;68523;51.336;-0.846;2023-06-05T09:27:00;12;11;
79117;PMS7003;68523;51.336;-0.846;2023-06-05T09:30:01;13;12;
79117;PMS7003;68523;51.336;-0.846;2023-06-05T09:33:07;15;14;
79117;PMS7003;68523;51.336;-0.846;2023-06-05T09:36:04;15;14;
79117;PMS7003;68523;51.336;-0.846;2023-06-05T09:42:00;14;14;
79117;PMS7003;68523;51.336;-0.846;2023-06-05T09:45:01;23;16;
79117;PMS7003;68523;51.336;-0.846;2023-06-05T09:48:12;14;14;
79117;PMS7003;68523;51.336;-0.846;2023-06-05T09:51:08;14;14;
79117;PMS7003;68523;51.336;-0.846;2023-06-05T09:54:00;17;15;
79117;PMS7003;68523;51.336;-0.846;2023-06-05T09:57:00;17;15;
79117;PMS7003;68523;51.336;-0.846;2023-06-05T10:00:02;10;10;
79117;PMS7003;68523;51.336;-0.846;2023-06-05T10:03:00;13;13;
79117;PMS7003;68523;51.336;-0.846;2023-06-05T10:06:00;13;13;
79117;PMS7003;68523;51.336;-0.846;2023-06-05T10:09:00;13;12;
79117;PMS7003;68523;51.336;-0.846;2023-06-05T10:12:00;13;12;
79117;PMS7003;68523;51.336;-0.846;2023-06-05T10:15:00;16;14;
79117;PMS7003;68523;51.336;-0.846;2023-06-05T10:18:00;14;13;
79117;PMS7003;68523;51.336;-0.846;2023-06-05T10:21:00;14;13;
79117;PMS7003;68523;51.336;-0.846;2023-06-05T10:24:01;14;14;
79117;PMS7003;68523;51.336;-0.846;2023-06-05T10:30:06;11;11;
79117;PMS7003;68523;51.336;-0.846;2023-06-05T10:33:03;14;14;
79117;PMS7003;68523;51.336;-0.846;2023-06-05T10:36:03;14;14;
79117;PMS7003;68523;51.336;-0.846;2023-06-05T10:39:01;15;14;
79117;PMS7003;68523;51.336;-0.846;2023-06-05T10:42:00;15;14;
79117;PMS7003;68523;51.336;-0.846;2023-06-05T10:45:00;13;9;
79117;PMS7003;68523;51.336;-0.846;2023-06-05T10:48:00;12;10;
79117;PMS7003;68523;51.336;-0.846;2023-06-05T10:54:00;11;11;
79117;PMS7003;68523;51.336;-0.846;2023-06-05T10:57:00;11;11;
79117;PMS7003;68523;51.336;-0.846;2023-06-05T11:00:04;24;23;
79117;PMS7003;68523;51.336;-0.846;2023-06-05T11:03:00;19;18;
79117;PMS7003;68523;51.336;-0.846;2023-06-05T11:09:08;47;40;
79117;PMS7003;68523;51.336;-0.846;2023-06-05T11:12:00;47;40;
79117;PMS7003;68523;51.336;-0.846;2023-06-05T11:15:00;25;18;
79117;PMS7003;68523;51.336;-0.846;2023-06-05T11:21:00;18;17;
79117;PMS7003;68523;51.336;-0.846;2023-06-05T11:27:00;11;9;
79117;PMS7003;68523;51.336;-0.846;2023-06-05T11:30:00;12;11;
79117;PMS7003;68523;51.336;-0.846;2023-06-05T11:33:05;8;8;
79117;PMS7003;68523;51.336;-0.846;2023-06-05T11:36:01;8;8;
79117;PMS7003;68523;51.336;-0.846;2023-06-05T11:39:00;10;9;
79117;PMS7003;68523;51.336;-0.846;2023-06-05T11:42:00;10;9;
79117;PMS7003;68523;51.336;-0.846;2023-06-05T11:45:00;11;11;
79117;PMS7003;68523;51.336;-0.846;2023-06-05T11:48:03;10;10;
79117;PMS7003;68523;51.336;-0.846;2023-06-05T11:51:01;10;10;
79117;PMS7003;68523;51.336;-0.846;2023-06-05T11:54:00;9;8;
79117;PMS7003;68523;51.336;-0.846;2023-06-05T11:57:00;9;8;
79117;PMS7003;68523;51.336;-0.846;2023-06-05T12:00:00;7;7;
79117;PMS7003;68523;51.336;-0.846;2023-06-05T12:03:00;12;9;
79117;PMS7003;68523;51.336;-0.846;2023-06-05T12:06:00;12;9;
79117;PMS7003;68523;51.336;-0.846;2023-06-05T12:09:07;8;8;
79117;PMS7003;68523;51.336;-0.846;2023-06-05T12:12:08;8;8;
79117;PMS7003;68523;51.336;-0.846;2023-06-05T12:18:00;10;10;
79117;PMS7003;68523;51.336;-0.846;2023-06-05T12:21:00;10;10;
79117;PMS7003;68523;51.336;-0.846;2023-06-05T12:24:00;10;8;
79117;PMS7003;68523;51.336;-0.846;2023-06-05T12:27:00;10;8;
79117;PMS7003;68523;51.336;-0.846;2023-06-05T12:30:00;8;8;
79117;PMS7003;68523;51.336;-0.846;2023-06-05T12:33:03;7;7;
79117;PMS7003;68523;51.336;-0.846;2023-06-05T12:36:03;7;7;
79117;PMS7003;68523;51.336;-0.846;2023-06-05T12:39:01;6;5;
79117;PMS7003;68523;51.336;-0.846;2023-06-05T12:42:00;6;5;
79117;PMS7003;68523;51.336;-0.846;2023-06-05T12:45:00;8;7;
79117;PMS7003;68523;51.336;-0.846;2023-06-05T12:48:00;8;6;
79117;PMS7003;68523;51.336;-0.846;2023-06-05T12:51:00;8;6;
79117;PMS7003;68523;51.336;-0.846;2023-06-05T12:54:00;6;6;
79117;PMS7003;68523;51.336;-0.846;2023-06-05T12:57:00;6;6;
79117;PMS7003;68523;51.336;-0.846;2023-06-05T13:00:02;8;8;
79117;PMS7003;68523;51.336;-0.846;2023-06-05T13:03:00;4;4;
79117;PMS7003;68523;51.336;-0.846;2023-06-05T13:06:00;4;4;
79117;PMS7003;68523;51.336;-0.846;2023-06-05T13:09:00;7;7;
79117;PMS7003;68523;51.336;-0.846;2023-06-05T13:12:00;7;7;
79117;PMS7003;68523;51.336;-0.846;2023-06-05T13:15:00;10;7;
79117;PMS7003;68523;51.336;-0.846;2023-06-05T13:18:00;7;7;
79117;PMS7003;68523;51.336;-0.846;2023-06-05T13:21:00;7;7;
79117;PMS7003;68523;51.336;-0.846;2023-06-05T13:24:00;7;7;
79117;PMS7003;68523;51.336;-0.846;2023-06-05T13:27:00;7;7;
79117;PMS7003;68523;51.336;-0.846;2023-06-05T13:30:00;6;6;
79117;PMS7003;68523;51.336;-0.846;2023-06-05T13:33:00;7;6;
79117;PMS7003;68523;51.336;-0.846;2023-06-05T13:36:00;7;6;
79117;PMS7003;68523;51.336;-0.846;2023-06-05T13:39:00;5;5;
79117;PMS7003;68523;51.336;-0.846;2023-06-05T13:42:00;5;5;
79117;PMS7003;68523;51.336;-0.846;2023-06-05T13:45:00;10;7;
79117;PMS7003;68523;51.336;-0.846;2023-06-05T13:48:00;7;7;
79117;PMS7003;68523;51.336;-0.846;2023-06-05T13:51:00;7;7;
79117;PMS7003;68523;51.336;-0.846;2023-06-05T13:54:00;8;7;
79117;PMS7003;68523;51.336;-0.846;2023-06-05T13:57:00;8;7;
79117;PMS7003;68523;51.336;-0.846;2023-06-05T14:00:00;5;5;
79117;PMS7003;68523;51.336;-0.846;2023-06-05T14:03:00;9;8;
79117;PMS7003;68523;51.336;-0.846;2023-06-05T14:06:00;9;8;
79117;PMS7003;68523;51.336;-0.846;2023-06-05T14:09:00;7;5;
79117;PMS7003;68523;51.336;-0.846;2023-06-05T14:12:01;7;5;
79117;PMS7003;68523;51.336;-0.846;2023-06-05T14:15:00;7;7;
79117;PMS7003;68523;51.336;-0.846;2023-06-05T14:18:00;6;6;
79117;PMS7003;68523;51.336;-0.846;2023-06-05T14:21:00;6;6;
79117;PMS7003;68523;51.336;-0.846;2023-06-05T14:24:00;6;6;
79117;PMS7003;68523;51.336;-0.846;2023-06-05T14:27:00;6;6;
79117;PMS7003;68523;51.336;-0.846;2023-06-05T14:30:01;7;7;
79117;PMS7003;68523;51.336;-0.846;2023-06-05T14:33:00;9;8;
79117;PMS7003;68523;51.336;-0.846;2023-06-05T14:36:00;9;8;
79117;PMS7003;68523;51.336;-0.846;2023-06-05T14:39:00;7;6;
79117;PMS7003;68523;51.336;-0.846;2023-06-05T14:42:00;7;6;
79117;PMS7003;68523;51.336;-0.846;2023-06-05T14:45:00;10;6;
79117;PMS7003;68523;51.336;-0.846;2023-06-05T14:48:00;10;5;
79117;PMS7003;68523;51.336;-0.846;2023-06-05T14:51:00;10;5;
79117;PMS7003;68523;51.336;-0.846;2023-06-05T14:54:00;8;6;
79117;PMS7003;68523;51.336;-0.846;2023-06-05T14:57:00;8;6;
79117;PMS7003;68523;51.336;-0.846;2023-06-05T15:00:00;7;6;
79117;PMS7003;68523;51.336;-0.846;2023-06-05T15:03:00;5;5;
79117;PMS7003;68523;51.336;-0.846;2023-06-05T15:06:00;5;5;
79117;PMS7003;68523;51.336;-0.846;2023-06-05T15:09:00;6;6;
79117;PMS7003;68523;51.336;-0.846;2023-06-05T15:12:00;6;6;
79117;PMS7003;68523;51.336;-0.846;2023-06-05T15:15:00;10;8;
79117;PMS7003;68523;51.336;-0.846;2023-06-05T15:18:00;10;8;
79117;PMS7003;68523;51.336;-0.846;2023-06-05T15:21:00;10;8;
79117;PMS7003;68523;51.336;-0.846;2023-06-05T15:24:00;7;7;
79117;PMS7003;68523;51.336;-0.846;2023-06-05T15:27:00;7;7;
79117;PMS7003;68523;51.336;-0.846;2023-06-05T15:30:00;7;7;
79117;PMS7003;68523;51.336;-0.846;2023-06-05T15:33:00;7;7;
79117;PMS7003;68523;51.336;-0.846;2023-06-05T15:36:00;7;7;
79117;PMS7003;68523;51.336;-0.846;2023-06-05T15:39:00;9;9;
79117;PMS7003;68523;51.336;-0.846;2023-06-05T15:42:00;9;9;
79117;PMS7003;68523;51.336;-0.846;2023-06-05T15:45:08;8;6;
79117;PMS7003;68523;51.336;-0.846;2023-06-05T15:48:00;8;6;
79117;PMS7003;68523;51.336;-0.846;2023-06-05T15:51:00;6;6;
79117;PMS7003;68523;51.336;-0.846;2023-06-05T15:54:00;9;9;
79117;PMS7003;68523;51.336;-0.846;2023-06-05T15:57:00;9;9;
79117;PMS7003;68523;51.336;-0.846;2023-06-05T16:00:00;10;8;
79117;PMS7003;68523;51.336;-0.846;2023-06-05T16:03:00;10;8;
79117;PMS7003;68523;51.336;-0.846;2023-06-05T16:06:00;7;7;
79117;PMS7003;68523;51.336;-0.846;2023-06-05T16:09:00;8;7;
79117;PMS7003;68523;51.336;-0.846;2023-06-05T16:12:00;8;7;
79117;PMS7003;68523;51.336;-0.846;2023-06-05T16:15:00;9;8;
79117;PMS7003;68523;51.336;-0.846;2023-06-05T16:18:00;9;8;
79117;PMS7003;68523;51.336;-0.846;2023-06-05T16:21:00;10;8;
79117;PMS7003;68523;51.336;-0.846;2023-06-05T16:24:00;10;7;
79117;PMS7003;68523;51.336;-0.846;2023-06-05T16:27:00;10;7;
79117;PMS7003;68523;51.336;-0.846;2023-06-05T16:30:00;6;6;
79117;PMS7003;68523;51.336;-0.846;2023-06-05T16:33:00;6;6;
79117;PMS7003;68523;51.336;-0.846;2023-06-05T16:36:00;6;5;
79117;PMS7003;68523;51.336;-0.846;2023-06-05T16:39:00;10;6;
79117;PMS7003;68523;51.336;-0.846;2023-06-05T16:42:00;10;6;
79117;PMS7003;68523;51.336;-0.846;2023-06-05T16:45:00;8;8;
79117;PMS7003;68523;51.336;-0.846;2023-06-05T16:48:00;8;8;
79117;PMS7003;68523;51.336;-0.846;2023-06-05T16:51:00;9;8;
79117;PMS7003;68523;51.336;-0.846;2023-06-05T16:54:00;11;7;
79117;PMS7003;68523;51.336;-0.846;2023-06-05T16:57:00;11;7;
79117;PMS7003;68523;51.336;-0.846;2023-06-05T17:00:00;8;7;
79117;PMS7003;68523;51.336;-0.846;2023-06-05T17:03:00;8;7;
79117;PMS7003;68523;51.336;-0.846;2023-06-05T17:06:00;9;9;
79117;PMS7003;68523;51.336;-0.846;2023-06-05T17:09:00;7;7;
79117;PMS7003;68523;51.336;-0.846;2023-06-05T17:12:00;7;7;
79117;PMS7003;68523;51.336;-0.846;2023-06-05T17:15:00;7;7;
79117;PMS7003;68523;51.336;-0.846;2023-06-05T17:18:00;7;7;
79117;PMS7003;68523;51.336;-0.846;2023-06-05T17:21:00;9;9;
79117;PMS7003;68523;51.336;-0.846;2023-06-05T17:24:00;8;7;
79117;PMS7003;68523;51.336;-0.846;2023-06-05T17:27:00;8;7;
79117;PMS7003;68523;51.336;-0.846;2023-06-05T17:30:00;10;9;
79117;PMS7003;68523;51.336;-0.846;2023-06-05T17:33:00;10;9;
79117;PMS7003;68523;51.336;-0.846;2023-06-05T17:36:00;8;6;
79117;PMS7003;68523;51.336;-0.846;2023-06-05T17:39:00;8;8;
79117;PMS7003;68523;51.336;-0.846;2023-06-05T17:42:01;8;8;
79117;PMS7003;68523;51.336;-0.846;2023-06-05T17:45:00;8;8;
79117;PMS7003;68523;51.336;-0.846;2023-06-05T17:48:00;8;8;
79117;PMS7003;68523;51.336;-0.846;2023-06-05T17:51:00;9;8;
79117;PMS7003;68523;51.336;-0.846;2023-06-05T17:54:00;9;9;
79117;PMS7003;68523;51.336;-0.846;2023-06-05T17:57:00;9;9;
79117;PMS7003;68523;51.336;-0.846;2023-06-05T18:00:00;10;8;
79117;PMS7003;68523;51.336;-0.846;2023-06-05T18:03:00;10;8;
79117;PMS7003;68523;51.336;-0.846;2023-06-05T18:06:00;10;8;
79117;PMS7003;68523;51.336;-0.846;2023-06-05T18:09:00;9;7;
79117;PMS7003;68523;51.336;-0.846;2023-06-05T18:12:00;9;7;
79117;PMS7003;68523;51.336;-0.846;2023-06-05T18:15:00;8;8;
79117;PMS7003;68523;51.336;-0.846;2023-06-05T18:18:00;8;8;
79117;PMS7003;68523;51.336;-0.846;2023-06-05T18:21:00;9;8;
79117;PMS7003;68523;51.336;-0.846;2023-06-05T18:24:00;8;8;
79117;PMS7003;68523;51.336;-0.846;2023-06-05T18:27:00;8;8;
79117;PMS7003;68523;51.336;-0.846;2023-06-05T18:30:00;11;10;
79117;PMS7003;68523;51.336;-0.846;2023-06-05T18:33:00;11;10;
79117;PMS7003;68523;51.336;-0.846;2023-06-05T18:36:00;9;9;
79117;PMS7003;68523;51.336;-0.846;2023-06-05T18:39:00;10;10;
79117;PMS7003;68523;51.336;-0.846;2023-06-05T18:42:00;10;10;
79117;PMS7003;68523;51.336;-0.846;2023-06-05T18:45:00;9;9;
79117;PMS7003;68523;51.336;-0.846;2023-06-05T18:48:00;9;9;
79117;PMS7003;68523;51.336;-0.846;2023-06-05T18:51:00;10;9;
79117;PMS7003;68523;51.336;-0.846;2023-06-05T18:54:00;7;7;
79117;PMS7003;68523;51.336;-0.846;2023-06-05T18:57:00;7;7;
79117;PMS7003;68523;51.336;-0.846;2023-06-05T19:00:00;9;9;
79117;PMS7003;68523;51.336;-0.846;2023-06-05T19:03:00;9;9;
79117;PMS7003;68523;51.336;-0.846;2023-06-05T19:06:00;10;9;
79117;PMS7003;68523;51.336;-0.846;2023-06-05T19:09:00;7;6;
79117;PMS7003;68523;51.336;-0.846;2023-06-05T19:12:00;7;6;
79117;PMS7003;68523;51.336;-0.846;2023-06-05T19:15:00;12;10;
79117;PMS7003;68523;51.336;-0.846;2023-06-05T19:18:00;12;10;
79117;PMS7003;68523;51.336;-0.846;2023-06-05T19:21:01;11;9;
79117;PMS7003;68523;51.336;-0.846;2023-06-05T19:24:00;13;9;
79117;PMS7003;68523;51.336;-0.846;2023-06-05T19:27:00;13;9;
79117;PMS7003;68523;51.336;-0.846;2023-06-05T19:30:00;14;11;
79117;PMS7003;68523;51.336;-0.846;2023-06-05T19:33:00;14;11;
79117;PMS7003;68523;51.336;-0.846;2023-06-05T19:36:00;8;8;
79117;PMS7003;68523;51.336;-0.846;2023-06-05T19:39:00;10;10;
79117;PMS7003;68523;51.336;-0.846;2023-06-05T19:42:00;10;10;
79117;PMS7003;68523;51.336;-0.846;2023-06-05T19:45:00;11;10;
79117;PMS7003;68523;51.336;-0.846;2023-06-05T19:48:00;11;10;
79117;PMS7003;68523;51.336;-0.846;2023-06-05T19:51:00;9;9;
79117;PMS7003;68523;51.336;-0.846;2023-06-05T19:54:00;11;9;
79117;PMS7003;68523;51.336;-0.846;2023-06-05T19:57:00;11;9;
79117;PMS7003;68523;51.336;-0.846;2023-06-05T20:00:00;10;10;
79117;PMS7003;68523;51.336;-0.846;2023-06-05T20:03:00;10;10;
79117;PMS7003;68523;51.336;-0.846;2023-06-05T20:06:01;15;14;
79117;PMS7003;68523;51.336;-0.846;2023-06-05T20:09:00;23;21;
79117;PMS7003;68523;51.336;-0.846;2023-06-05T20:12:00;23;21;